CYEN

Estevan Airport

Estevan, Saskatchewan, Canada
TAF CYEN 241738Z 2418/2424 32007KT P6SM OVC007 TEMPO 2418/2420 OVC012 FM242000 31010KT P6SM SCT012 BKN030 TEMPO 2420/2424 BKN012 OVC025 RMK FCST BASED ON AUTO OBS. NXT FCST WILL BE ISSUED AT 251145Z
Issued Valid From Valid To
Sep-24 @ 17:38 UTC
(2 hours ago)
Sep-24 @ 18:00 UTC
(an hour ago)
Sep-25 @ 00:00 UTC
(in 5 hours)
Sep-24 @ 18:00 to Sep-24 @ 20:00
TAF CYEN 241738Z 2418/2424 32007KT P6SM OVC007
Wind Visibility Clouds
320° at 7 knots Greater than 6 miles
  • Overcast at 700' AGL
Temporary Sep-24 @ 18:00 to Sep-24 @ 20:00
TEMPO 2418/2420 OVC012
Clouds
  • Overcast at 1,200' AGL
From Sep-24 @ 20:00 to Sep-25 @ 00:00
FM242000 31010KT P6SM SCT012 BKN030
Wind Visibility Clouds
310° at 10 knots Greater than 6 miles
  • Scattered at 1,200' AGL
  • Broken at 3,000' AGL
Temporary Sep-24 @ 20:00 to Sep-25 @ 00:00
TEMPO 2420/2424 BKN012 OVC025 RMK FCST BASED ON AUTO OBS. NXT FCST WILL BE ISSUED AT 251145Z
Clouds
  • Broken at 1,200' AGL
  • Overcast at 2,500' AGL
TAF CYEN 241738Z 2418/2424 32007KT P6SM OVC007 TEMPO 2418/2420 OVC012 FM242000 31010KT P6SM SCT012 BKN030 TEMPO 2420/2424 BKN012 OVC025 RMK FCST BASED ON AUTO OBS. NXT FCST WILL BE ISSUED AT 251145Z
Issued Sep-24 @ 17:38 UTC
(2 hours ago)
Valid From Sep-24 @ 18:00 UTC
(an hour ago)
Valid To Sep-25 @ 00:00 UTC
(in 5 hours)
Sep-24 @ 18:00 - Sep-24 @ 20:00
Wind Visibility
320° at 7 knots Greater than 6 miles
Clouds
  • Overcast at 700' AGL
Temporary Sep-24 @ 18:00 - Sep-24 @ 20:00
Clouds
  • Overcast at 1,200' AGL
From Sep-24 @ 20:00 - Sep-25 @ 00:00
Wind Visibility
310° at 10 knots Greater than 6 miles
Clouds
  • Scattered at 1,200' AGL
  • Broken at 3,000' AGL
Temporary Sep-24 @ 20:00 - Sep-25 @ 00:00
Clouds
  • Broken at 1,200' AGL
  • Overcast at 2,500' AGL